Federico Gonzalez

Recruteur - Sportivo Luqueno
20 Janv 2028
Jeudi
Processus

Personnalité

Adaptabilité (5) Ambition (11) Controverse (3) Loyauté (7) Pression (13) Professionnalisme (17) Sportivité (7) Tempérament (5)

Profil

Style d'entraînement Démocratique
Diplôme Continental C
Détermination 7
Gestion des joueurs 10
Motivation 12
Discipline 4
Satisfaction professionnelle
100%
Fatigue
0%
Rôle Recruteur
Salaire 56.1K p/s
Contrat 14.03.2028

Performance

Comportement Bon
Efficacité de l'entraînement
41%
Développement des joueurs
40%
Prévention des blessures
25%
Mise en place tactique
45%

Événements récents

Négociation de contrat entamée maintenant
En formation continue maintenant
A participé à une réunion de recrutement maintenant
A recommandé une cible de transfert maintenant
Négociation de contrat entamée maintenant
En formation continue maintenant
Négociation de contrat entamée 7j
En formation continue 7j

Suivi en cours

150
Joueur Club Statut Capacité Confiance Observé Dernière observation Dernier vote
Siyabonga Mabena Chippa United Actif 111 / 124 40% 1 27.12.2027 -
Jayden Danns Wigan Athletic Actif 135 / 142 40% 1 27.12.2027 -
Kevin Angulo America de Cali Négociation 97 / 116 40% 1 27.12.2027 -
Mateo Silvetti Los Angeles Football Club Actif 134 / 135 40% 1 13.12.2027 -
Ryunosuke Sato Valencia Actif 141 / 132 40% 1 13.12.2027 -
David Valencia Alianza Petrolera Actif 134 / 132 40% 1 13.12.2027 -
Ángel Ibarra Libertad Actif 94 / 98 72% 1 19.07.2027 Approuver
Rodrigo Bogarín Barracas Central Actif 119 / 117 40% 2 29.11.2026 -
Tariq Lamptey Queens Park Rangers Actif 134 / 129 40% 1 29.11.2026 -
Iván Tapia Barracas Central Actif 120 / 119 40% 1 29.11.2026 -
Phil Neumann Birmingham Actif 111 / 120 40% 1 29.11.2026 -
Lorent Tolaj Plymouth Argyle Actif 124 / 119 40% 1 29.11.2026 -
Yhormar Hurtado SonderjyskE Actif 118 / 127 40% 2 27.11.2026 -
Nicolás Paz San Martín SJ Actif 121 / 125 40% 1 27.11.2026 -
Raimundo Rebolledo Nizhniy Novgorod Actif 111 / 106 40% 1 26.11.2026 -
Adrián Sánchez Belgrano Actif 128 / 120 40% 1 26.11.2026 -
Toti Wolverhampton Actif 141 / 130 40% 1 25.11.2026 -
Brodie Spencer Oxford United Actif 115 / 120 40% 1 25.11.2026 -
Franco Díaz Temperley Actif 123 / 124 40% 1 23.11.2026 -
Ethan Pye Stockport County Actif 124 / 119 40% 1 23.11.2026 -
Mauro Valiente Estudiantes Actif 118 / 113 40% 2 21.11.2026 -
Marcelo Torres Gimnasia La Plata Actif 118 / 123 40% 2 20.11.2026 -
Juan Cruz Martins Jihlava Actif 111 / 104 40% 2 18.11.2026 -
Zeki Amdouni Burnley Actif 136 / 138 40% 1 18.11.2026 -
Nazareno Roselli Defensa y Justicia Actif 109 / 122 40% 3 12.11.2026 -
Ramiro Ruiz Rodríguez Atlético Tucumán Actif 124 / 125 40% 2 12.11.2026 -
Galo Galarza Estudiantes Actif 97 / 107 40% 2 12.11.2026 -
Adolfo Muñoz Ruch Actif 116 / 123 40% 1 12.11.2026 -
Themba Ngcobo SuperSport United Actif 109 / 113 40% 2 08.11.2026 -
Nicolás Cordero Aldosivi Actif 125 / 114 40% 2 07.11.2026 -
Job Ochieng Real Sociedad Actif 114 / 100 40% 1 07.11.2026 -
Assad Al Hamlawi Universitatea Craiova Actif 119 / 128 40% 1 07.11.2026 -
Wessam Abou Ali Columbus Crew Actif 120 / 135 40% 2 06.11.2026 -
Tomás Ferreyra Defensores Unidos Actif 109 / 117 40% 1 04.11.2026 -
Mathías de Ritis San Lorenzo Actif 122 / 121 40% 1 04.11.2026 -
Fernando Martínez Central Córdoba SdE Actif 120 / 112 40% 1 04.11.2026 -
Kazunari Kita Real Sociedad Actif 82 / 108 40% 1 03.11.2026 -
Leo Cristaldo Vélez Actif 97 / 116 40% 1 03.11.2026 -
Mateo Mendoza Godoy Cruz Actif 128 / 121 40% 1 03.11.2026 -
Yeison Moreno Hajduk Split Actif 118 / 116 40% 1 31.10.2026 -
Juan Rocca Gimnasia y Tiro Actif 111 / 112 40% 1 30.10.2026 -
Peter Christiansen Viking Actif 121 / 109 40% 1 29.10.2026 -
Renzo Reynaga Patronato Actif 115 / 107 40% 1 29.10.2026 -
Juan José Cardozo Argentinos Juniors Actif 109 / 127 40% 1 26.10.2026 -
Hernán de la Fuente Instituto Actif 126 / 119 40% 1 26.10.2026 -
Germán Guiffrey Gimnasia y Esgrima Actif 109 / 108 40% 1 26.10.2026 -
Luca Franco Arsenal Actif 105 / 109 40% 1 25.10.2026 -
Kévin Denkey FC Cincinnati Actif 140 / 123 40% 4 23.10.2026 -
Hlompho Lorch Ajax Cape Town Actif 102 / 90 40% 1 23.10.2026 -
Víctor Reyes Deportes Tolima Actif 86 / 92 40% 1 23.10.2026 -
Diego García Malmo FF Actif 133 / 127 40% 1 23.10.2026 -
Rafael Navarro St. Louis CITY SC Actif 128 / 119 40% 1 23.10.2026 -
Fernando Corica Slovacko Actif 90 / 102 40% 1 21.10.2026 -
Mandla Mahlangu Ajax Cape Town Actif 98 / 106 40% 1 21.10.2026 -
Stephen Humphrys Bradford City Actif 96 / 113 40% 1 21.10.2026 -
Alexis Pereyra Vélez Actif 99 / 101 40% 1 21.10.2026 -
João Simões Sporting CP Actif 126 / 133 40% 1 21.10.2026 -
Iker Córdoba Valencia Actif 108 / 116 40% 1 21.10.2026 -
Philippe Ndinga Philadelphia Union Actif 104 / 123 40% 2 17.10.2026 -
Matteo Pérez Vinlöf Dinamo Zagreb Actif 110 / 127 40% 2 17.10.2026 -
Mbekezeli Mbokazi Chicago Fire Actif 124 / 124 40% 1 17.10.2026 -
Ramahlwe Vilakazi Free State Stars Actif 108 / 115 40% 1 16.10.2026 -
Malte Amundsen Columbus Crew Actif 131 / 117 40% 1 16.10.2026 -
Tadeo Allende Inter Miami CF Actif 113 / 120 40% 1 14.10.2026 -
Jonás Luna Santa Clara Actif 111 / 131 40% 1 14.10.2026 -
Marcos Camarda Santiago Wanderers Actif 100 / 102 40% 1 13.10.2026 -
Alexander Aravena Portland Timbers Actif 127 / 124 40% 1 13.10.2026 -
Santiago Espíndola River Plate Actif 101 / 114 40% 1 12.10.2026 -
Tomás González Piast Actif 115 / 111 40% 2 10.10.2026 -
Jesus Ferreira Seattle Sounders Actif 115 / 137 40% 1 10.10.2026 -
Louis Munteanu DC United Actif 120 / 126 40% 3 09.10.2026 -
Sam Surridge Nashville SC Actif 121 / 123 40% 2 09.10.2026 -
Alhassan Yusuf New England Revolution Actif 134 / 127 40% 1 08.10.2026 -
Lucas Arce CFR Cluj Actif 120 / 114 40% 1 07.10.2026 -
Facundo Mura Inter Miami CF Actif 132 / 132 40% 1 07.10.2026 -
Gabriel Jesus Barcelona Actif 145 / 151 40% 4 05.10.2026 -
Felipe Vizeu Sporting Cristal Actif 121 / 116 40% 1 04.10.2026 -
Breel Embolo Atlanta United FC Actif 128 / 130 40% 2 03.10.2026 -
Mauricio Amaro Atlanta United FC Actif 115 / 134 40% 1 03.10.2026 -
Delvin Alfonzo Deportivo Tachira Actif 113 / 117 40% 1 01.10.2026 -
James Sands New York City Actif 111 / 125 40% 1 01.10.2026 -
Agustín Alvez San Lorenzo Actif 96 / 94 40% 1 28.09.2026 -
Isaac Kyereh Liberty Professionals Actif 114 / 121 40% 1 27.09.2026 -
Teun Gijselhart Deportivo La Coruña Actif 112 / 117 40% 1 26.09.2026 -
Yahaya Ibrahim Plateau United Actif 82 / 99 40% 1 26.09.2026 -
Máximo Desábato Estudiantes Actif 102 / 95 40% 1 22.09.2026 -
Álvaro Navoni Tigre Actif 78 / 97 40% 1 22.09.2026 -
Jesús Yendis Caracas Actif 101 / 112 40% 1 20.09.2026 -
Tobías Bovone Deportivo Pereira Actif 104 / 115 40% 1 20.09.2026 -
José Castellano Mineros de Guayana Actif 77 / 80 40% 1 20.09.2026 -
Juan Giménez Celta Actif 121 / 131 40% 2 17.09.2026 -
Isaí Valladares Zamora Actif 89 / 100 40% 1 17.09.2026 -
Miguel Vegas Caracas Actif 87 / 99 40% 1 17.09.2026 -
Santiago Rodríguez Huracán Actif 93 / 89 40% 1 15.09.2026 -
Mandla Erasmus SuperSport United Actif 130 / 117 40% 2 14.09.2026 -
Elías Báez Atlanta United FC Actif 129 / 125 40% 1 14.09.2026 -
Daniel Kelly Oxford United Actif 104 / 125 40% 1 14.09.2026 -
Leandro Aldeco Vélez Actif 83 / 93 40% 1 12.09.2026 -
Dani Villahermosa Oviedo Actif 113 / 106 40% 1 11.09.2026 -
Juan Camilo Pérez Carabobo Actif 109 / 110 40% 1 11.09.2026 -
Nectar Triantis Minnesota United FC Actif 118 / 122 40% 1 09.09.2026 -
Alejo Antilef Debrecen Actif 97 / 106 40% 1 09.09.2026 -
Gabriel Otero Llaneros Actif 108 / 101 40% 1 09.09.2026 -
David Miculescu FCSB Actif 107 / 112 40% 1 07.09.2026 -
Duncan McGuire Houston Dynamo Actif 115 / 133 40% 1 05.09.2026 -
Diego Valencia Universidad Catolica Actif 110 / 111 40% 1 05.09.2026 -
Thiago Currado Platense Actif 101 / 102 40% 1 04.09.2026 -
Alejo Rivas San Lorenzo Actif 96 / 106 40% 1 04.09.2026 -
Enzo Avaro Odd Actif 122 / 102 40% 1 03.09.2026 -
Ayoub Jabbari FC Cincinnati Actif 121 / 108 40% 1 03.09.2026 -
Alan Cantero Alianza Lima Actif 121 / 124 40% 1 02.09.2026 -
Agustín Bianciotti Metropolitanos Actif 97 / 98 40% 1 02.09.2026 -
Abraham Bahachille Carabobo Actif 98 / 103 40% 1 01.09.2026 -
Miles Robinson FC Cincinnati Actif 124 / 126 40% 1 01.09.2026 -
Mateusz Bogusz Houston Dynamo Actif 135 / 127 40% 1 31.08.2026 -
José Carabalí Universitario Actif 110 / 115 40% 1 31.08.2026 -
Jeyson Rojas Colo-Colo Actif 95 / 107 40% 1 31.08.2026 -
Iván Moreno Leon Actif 100 / 117 40% 1 29.08.2026 -
Brian Gutiérrez River Plate Actif 93 / 101 40% 1 29.08.2026 -
Thiago Villalba Vélez Actif 100 / 106 40% 1 29.08.2026 -
Felipe Obradovich Ferro Carril Oeste Actif 112 / 123 40% 1 25.08.2026 -
Lautaro Occhiuzzi Atlanta Actif 78 / 89 40% 1 25.08.2026 -
David Brekalo Orlando City Actif 136 / 118 40% 1 24.08.2026 -
Marcelo Saracchi Houston Dynamo Actif 128 / 136 40% 1 23.08.2026 -
Armindo Sieb Los Angeles Football Club Actif 123 / 122 40% 1 22.08.2026 -
Bautista Barros Schelotto Gimnasia La Plata Actif 111 / 118 40% 1 19.08.2026 -
Lucas Souto Defensa y Justicia Actif 120 / 126 40% 1 19.08.2026 -
Franco Sivetti Gimnasia y Tiro Actif 106 / 107 40% 1 18.08.2026 -
Martín Távara Sporting Cristal Actif 109 / 117 40% 1 17.08.2026 -
Mario García Racing Santander Actif 124 / 131 40% 1 17.08.2026 -
Cristhián Rivas Estudiantes de Merida Actif 106 / 117 40% 1 17.08.2026 -
Gabriel Barrios Argentinos Juniors Actif 82 / 90 40% 1 17.08.2026 -
Alejandro Tello Racing Club Actif 82 / 98 40% 1 16.08.2026 -
Agustín Seyral Sarmiento Actif 92 / 104 40% 1 16.08.2026 -
Adalberto Peñaranda Deportivo Tachira Actif 117 / 116 40% 1 15.08.2026 -
José Balza Deportivo Tachira Actif 113 / 105 40% 1 15.08.2026 -
Mauricio Cardillo San Lorenzo Actif 117 / 122 40% 1 12.08.2026 -
Santiago Sosa Yung Sevilla Actif 116 / 127 40% 1 12.08.2026 -
Luciano Minniti Tigre Actif 85 / 90 40% 1 11.08.2026 -
Facundo González River Plate Actif 90 / 106 40% 1 11.08.2026 -
Victor Moreno Llaneros Actif 97 / 108 40% 1 10.08.2026 -
Agustín Pérez Deportivo Tachira Actif 106 / 106 40% 1 10.08.2026 -
Junior Paredes Trujillanos Actif 95 / 94 40% 1 07.08.2026 -
Ronaldo Peña Deportivo Lara Actif 100 / 97 40% 1 07.08.2026 -
Mateo Seoane Gimnasia La Plata Perdu 123 / 122 40% 1 06.08.2026 -
Diego Osio Deportivo La Guaira Actif 106 / 112 40% 1 02.08.2026 -
Augusto Schott Talleres Actif 122 / 123 40% 1 02.08.2026 -
Carlos Adrián Sánchez Pachuca Actif 100 / 102 40% 1 02.08.2026 -
Aihen Muñoz Real Sociedad Actif 137 / 128 40% 1 01.08.2026 -
Joe Gomez Liverpool Actif 135 / 155 40% 1 01.08.2026 -